sensor_id;sensor_type;location;lat;lon;timestamp;pressure;altitude;pressure_sealevel;temperature;humidity
69574;BME280;62840;52.366;5.980;2023-02-12T00:01:56;103728.47;;;7.46;71.52
69574;BME280;62840;52.366;5.980;2023-02-12T00:04:22;103741.00;;;7.41;71.51
69574;BME280;62840;52.366;5.980;2023-02-12T00:06:50;103733.13;;;7.34;71.60
69574;BME280;62840;52.366;5.980;2023-02-12T00:09:16;103729.72;;;7.29;71.65
69574;BME280;62840;52.366;5.980;2023-02-12T00:11:41;103730.69;;;7.25;71.86
69574;BME280;62840;52.366;5.980;2023-02-12T00:14:07;103737.88;;;7.20;71.61
69574;BME280;62840;52.366;5.980;2023-02-12T00:16:33;103752.03;;;7.19;71.85
69574;BME280;62840;52.366;5.980;2023-02-12T00:18:59;103735.25;;;7.17;71.94
69574;BME280;62840;52.366;5.980;2023-02-12T00:21:24;103740.66;;;7.14;71.58
69574;BME280;62840;52.366;5.980;2023-02-12T00:23:53;103738.13;;;7.08;71.59
69574;BME280;62840;52.366;5.980;2023-02-12T00:26:20;103739.13;;;7.04;71.81
69574;BME280;62840;52.366;5.980;2023-02-12T00:28:47;103734.78;;;7.00;71.90
69574;BME280;62840;52.366;5.980;2023-02-12T00:31:15;103749.00;;;6.96;72.00
69574;BME280;62840;52.366;5.980;2023-02-12T00:33:42;103749.13;;;6.89;71.68
69574;BME280;62840;52.366;5.980;2023-02-12T00:36:13;103751.00;;;6.84;71.78
69574;BME280;62840;52.366;5.980;2023-02-12T00:38:40;103745.75;;;6.81;71.79
69574;BME280;62840;52.366;5.980;2023-02-12T00:41:09;103751.97;;;6.79;71.93
69574;BME280;62840;52.366;5.980;2023-02-12T00:43:35;103746.78;;;6.74;71.93
69574;BME280;62840;52.366;5.980;2023-02-12T00:46:01;103751.31;;;6.69;71.85
69574;BME280;62840;52.366;5.980;2023-02-12T00:48:28;103751.38;;;6.66;71.81
69574;BME280;62840;52.366;5.980;2023-02-12T00:50:53;103744.41;;;6.59;72.05
69574;BME280;62840;52.366;5.980;2023-02-12T00:53:20;103742.78;;;6.51;72.08
69574;BME280;62840;52.366;5.980;2023-02-12T00:55:45;103744.66;;;6.46;72.05
69574;BME280;62840;52.366;5.980;2023-02-12T00:58:14;103741.22;;;6.41;72.19
69574;BME280;62840;52.366;5.980;2023-02-12T01:00:39;103741.34;;;6.35;71.93
69574;BME280;62840;52.366;5.980;2023-02-12T01:03:05;103743.19;;;6.30;71.84
69574;BME280;62840;52.366;5.980;2023-02-12T01:05:31;103745.03;;;6.25;72.18
69574;BME280;62840;52.366;5.980;2023-02-12T01:07:57;103743.38;;;6.21;72.19
69574;BME280;62840;52.366;5.980;2023-02-12T01:10:23;103741.66;;;6.17;72.19
69574;BME280;62840;52.366;5.980;2023-02-12T01:12:49;103750.56;;;6.13;72.02
69574;BME280;62840;52.366;5.980;2023-02-12T01:15:18;103749.78;;;6.07;72.03
69574;BME280;62840;52.366;5.980;2023-02-12T01:17:44;103750.75;;;6.02;72.13
69574;BME280;62840;52.366;5.980;2023-02-12T01:20:12;103749.03;;;5.98;72.23
69574;BME280;62840;52.366;5.980;2023-02-12T01:22:41;103736.78;;;5.92;72.07
69574;BME280;62840;52.366;5.980;2023-02-12T01:25:07;103743.03;;;5.88;72.14
69574;BME280;62840;52.366;5.980;2023-02-12T01:27:34;103740.47;;;5.82;72.35
69574;BME280;62840;52.366;5.980;2023-02-12T01:30:00;103737.03;;;5.77;72.16
69574;BME280;62840;52.366;5.980;2023-02-12T01:32:28;103739.75;;;5.72;72.28
69574;BME280;62840;52.366;5.980;2023-02-12T01:34:54;103744.19;;;5.68;72.34
69574;BME280;62840;52.366;5.980;2023-02-12T01:37:20;103747.75;;;5.67;72.26
69574;BME280;62840;52.366;5.980;2023-02-12T01:39:46;103742.53;;;5.64;72.10
69574;BME280;62840;52.366;5.980;2023-02-12T01:42:13;103746.97;;;5.62;72.21
69574;BME280;62840;52.366;5.980;2023-02-12T01:44:43;103752.28;;;5.61;72.27
69574;BME280;62840;52.366;5.980;2023-02-12T01:47:32;103746.13;;;5.57;72.29
69574;BME280;62840;52.366;5.980;2023-02-12T01:49:57;103755.03;;;5.53;72.16
69574;BME280;62840;52.366;5.980;2023-02-12T01:52:26;103749.78;;;5.50;72.30
69574;BME280;62840;52.366;5.980;2023-02-12T01:55:00;103748.06;;;5.46;72.21
69574;BME280;62840;52.366;5.980;2023-02-12T01:57:29;103746.38;;;5.42;72.29
69574;BME280;62840;52.366;5.980;2023-02-12T01:59:59;103756.97;;;5.42;72.37
69574;BME280;62840;52.366;5.980;2023-02-12T02:02:32;103751.69;;;5.39;72.26
69574;BME280;62840;52.366;5.980;2023-02-12T02:05:01;103764.06;;;5.37;72.28
69574;BME280;62840;52.366;5.980;2023-02-12T02:07:29;103751.81;;;5.33;72.14
69574;BME280;62840;52.366;5.980;2023-02-12T02:09:55;103753.59;;;5.29;72.19
69574;BME280;62840;52.366;5.980;2023-02-12T02:12:21;103753.66;;;5.24;72.27
69574;BME280;62840;52.366;5.980;2023-02-12T02:14:48;103748.44;;;5.21;72.23
69574;BME280;62840;52.366;5.980;2023-02-12T02:17:33;103756.41;;;5.17;72.31
69574;BME280;62840;52.366;5.980;2023-02-12T02:23:49;103739.72;;;5.10;72.26
69574;BME280;62840;52.366;5.980;2023-02-12T02:26:53;103743.28;;;5.11;72.33
69574;BME280;62840;52.366;5.980;2023-02-12T02:29:47;103743.34;;;5.06;72.40
69574;BME280;62840;52.366;5.980;2023-02-12T02:32:37;103735.47;;;5.00;72.32
69574;BME280;62840;52.366;5.980;2023-02-12T02:35:15;103741.69;;;4.96;72.42
69574;BME280;62840;52.366;5.980;2023-02-12T02:37:58;103741.72;;;4.90;72.52
69574;BME280;62840;52.366;5.980;2023-02-12T02:40:40;103732.94;;;4.88;72.36
69574;BME280;62840;52.366;5.980;2023-02-12T02:43:15;103732.06;;;4.87;72.56
69574;BME280;62840;52.366;5.980;2023-02-12T02:45:51;103732.94;;;4.88;72.50
69574;BME280;62840;52.366;5.980;2023-02-12T02:48:27;103725.94;;;4.83;72.36
69574;BME280;62840;52.366;5.980;2023-02-12T02:51:02;103733.94;;;4.79;72.54
69574;BME280;62840;52.366;5.980;2023-02-12T02:53:33;103724.25;;;4.76;72.48
69574;BME280;62840;52.366;5.980;2023-02-12T02:56:06;103729.56;;;4.73;72.33
69574;BME280;62840;52.366;5.980;2023-02-12T02:58:40;103721.69;;;4.70;72.53
69574;BME280;62840;52.366;5.980;2023-02-12T03:01:16;103722.63;;;4.66;72.17
69574;BME280;62840;52.366;5.980;2023-02-12T03:03:48;103721.75;;;4.62;72.50
69574;BME280;62840;52.366;5.980;2023-02-12T03:06:26;103731.50;;;4.59;72.61
69574;BME280;62840;52.366;5.980;2023-02-12T03:09:01;103724.50;;;4.55;72.39
69574;BME280;62840;52.366;5.980;2023-02-12T03:11:33;103721.03;;;4.50;72.63
69574;BME280;62840;52.366;5.980;2023-02-12T03:14:04;103712.25;;;4.48;72.64
69574;BME280;62840;52.366;5.980;2023-02-12T03:16:47;103715.78;;;4.47;72.61
69574;BME280;62840;52.366;5.980;2023-02-12T03:19:24;103712.25;;;4.46;72.73
69574;BME280;62840;52.366;5.980;2023-02-12T03:21:56;103710.53;;;4.42;72.49
69574;BME280;62840;52.366;5.980;2023-02-12T03:24:31;103714.13;;;4.36;72.37
69574;BME280;62840;52.366;5.980;2023-02-12T03:27:05;103714.16;;;4.33;72.55
69574;BME280;62840;52.366;5.980;2023-02-12T03:29:34;103721.22;;;4.31;72.66
69574;BME280;62840;52.366;5.980;2023-02-12T03:32:13;103719.47;;;4.30;72.63
69574;BME280;62840;52.366;5.980;2023-02-12T03:34:52;103717.75;;;4.26;72.61
69574;BME280;62840;52.366;5.980;2023-02-12T03:37:30;103718.66;;;4.24;72.44
69574;BME280;62840;52.366;5.980;2023-02-12T03:40:06;103718.69;;;4.20;72.60
69574;BME280;62840;52.366;5.980;2023-02-12T03:42:45;103713.41;;;4.17;72.45
69574;BME280;62840;52.366;5.980;2023-02-12T03:48:12;103728.44;;;4.14;72.51
69574;BME280;62840;52.366;5.980;2023-02-12T03:50:50;103721.38;;;4.13;72.67
69574;BME280;62840;52.366;5.980;2023-02-12T03:53:21;103729.34;;;4.08;72.59
69574;BME280;62840;52.366;5.980;2023-02-12T03:55:53;103723.25;;;4.05;72.46
69574;BME280;62840;52.366;5.980;2023-02-12T03:58:25;103717.97;;;4.01;72.71
69574;BME280;62840;52.366;5.980;2023-02-12T04:00:54;103720.66;;;3.98;72.56
69574;BME280;62840;52.366;5.980;2023-02-12T04:03:23;103727.69;;;3.98;72.59
69574;BME280;62840;52.366;5.980;2023-02-12T04:05:50;103731.22;;;3.97;72.81
69574;BME280;62840;52.366;5.980;2023-02-12T04:08:15;103734.72;;;3.97;72.81
69574;BME280;62840;52.366;5.980;2023-02-12T04:10:51;103739.13;;;3.98;72.58
69574;BME280;62840;52.366;5.980;2023-02-12T04:13:31;103729.47;;;3.96;72.62
69574;BME280;62840;52.366;5.980;2023-02-12T04:16:14;103739.16;;;3.92;72.60
69574;BME280;62840;52.366;5.980;2023-02-12T04:18:50;103737.44;;;3.91;72.84
69574;BME280;62840;52.366;5.980;2023-02-12T04:21:30;103748.00;;;3.91;72.70
69574;BME280;62840;52.366;5.980;2023-02-12T04:24:15;103744.44;;;3.92;72.80
69574;BME280;62840;52.366;5.980;2023-02-12T04:26:54;103740.94;;;3.93;72.98
69574;BME280;62840;52.366;5.980;2023-02-12T04:29:30;103751.50;;;3.93;72.77
69574;BME280;62840;52.366;5.980;2023-02-12T04:32:04;103760.28;;;3.94;73.03
69574;BME280;62840;52.366;5.980;2023-02-12T04:34:43;103761.16;;;3.96;72.98
69574;BME280;62840;52.366;5.980;2023-02-12T04:37:17;103751.47;;;3.96;72.85
69574;BME280;62840;52.366;5.980;2023-02-12T04:39:45;103758.50;;;3.97;72.93
69574;BME280;62840;52.366;5.980;2023-02-12T04:42:14;103758.47;;;4.00;73.11
69574;BME280;62840;52.366;5.980;2023-02-12T04:44:42;103754.94;;;4.05;73.02
69574;BME280;62840;52.366;5.980;2023-02-12T04:47:10;103760.19;;;4.08;73.03
69574;BME280;62840;52.366;5.980;2023-02-12T04:49:39;103767.19;;;4.12;73.17
69574;BME280;62840;52.366;5.980;2023-02-12T04:52:06;103766.28;;;4.14;73.08
69574;BME280;62840;52.366;5.980;2023-02-12T04:54:32;103762.75;;;4.17;73.19
69574;BME280;62840;52.366;5.980;2023-02-12T04:56:58;103769.78;;;4.18;73.02
69574;BME280;62840;52.366;5.980;2023-02-12T04:59:25;103767.97;;;4.21;73.16
69574;BME280;62840;52.366;5.980;2023-02-12T05:01:51;103763.56;;;4.25;73.18
69574;BME280;62840;52.366;5.980;2023-02-12T05:04:17;103772.34;;;4.27;72.99
69574;BME280;62840;52.366;5.980;2023-02-12T05:06:46;103766.16;;;4.30;73.02
69574;BME280;62840;52.366;5.980;2023-02-12T05:09:14;103764.38;;;4.32;73.10
69574;BME280;62840;52.366;5.980;2023-02-12T05:11:41;103769.63;;;4.33;73.14
69574;BME280;62840;52.366;5.980;2023-02-12T05:14:07;103763.44;;;4.37;73.19
69574;BME280;62840;52.366;5.980;2023-02-12T05:16:33;103759.00;;;4.41;73.18
69574;BME280;62840;52.366;5.980;2023-02-12T05:18:59;103760.72;;;4.45;73.16
69574;BME280;62840;52.366;5.980;2023-02-12T05:21:24;103770.41;;;4.48;72.93
69574;BME280;62840;52.366;5.980;2023-02-12T05:23:53;103764.19;;;4.50;72.96
69574;BME280;62840;52.366;5.980;2023-02-12T05:26:20;103772.13;;;4.52;72.99
69574;BME280;62840;52.366;5.980;2023-02-12T05:28:46;103767.66;;;4.54;72.99
69574;BME280;62840;52.366;5.980;2023-02-12T05:31:14;103772.06;;;4.55;73.09
69574;BME280;62840;52.366;5.980;2023-02-12T05:33:42;103772.06;;;4.55;73.15
69574;BME280;62840;52.366;5.980;2023-02-12T05:36:11;103777.31;;;4.58;73.20
69574;BME280;62840;52.366;5.980;2023-02-12T05:38:40;103777.31;;;4.61;73.16
69574;BME280;62840;52.366;5.980;2023-02-12T05:41:10;103780.81;;;4.63;72.92
69574;BME280;62840;52.366;5.980;2023-02-12T05:43:37;103771.97;;;4.64;73.04
69574;BME280;62840;52.366;5.980;2023-02-12T05:46:05;103774.63;;;4.66;73.10
69574;BME280;62840;52.366;5.980;2023-02-12T05:48:33;103775.44;;;4.69;73.05
69574;BME280;62840;52.366;5.980;2023-02-12T05:51:03;103771.88;;;4.72;72.84
69574;BME280;62840;52.366;5.980;2023-02-12T05:53:30;103775.38;;;4.75;72.84
69574;BME280;62840;52.366;5.980;2023-02-12T05:56:09;103784.19;;;4.77;73.07
69574;BME280;62840;52.366;5.980;2023-02-12T05:58:37;103784.19;;;4.77;73.08
69574;BME280;62840;52.366;5.980;2023-02-12T06:01:08;103786.81;;;4.79;73.11
69574;BME280;62840;52.366;5.980;2023-02-12T06:03:36;103778.84;;;4.80;73.04
69574;BME280;62840;52.366;5.980;2023-02-12T06:06:02;103787.63;;;4.82;73.28
69574;BME280;62840;52.366;5.980;2023-02-12T06:08:29;103785.00;;;4.82;73.06
69574;BME280;62840;52.366;5.980;2023-02-12T06:10:58;103787.63;;;4.86;73.07
69574;BME280;62840;52.366;5.980;2023-02-12T06:13:28;103789.38;;;4.87;73.17
69574;BME280;62840;52.366;5.980;2023-02-12T06:15:54;103792.00;;;4.88;73.12
69574;BME280;62840;52.366;5.980;2023-02-12T06:18:20;103788.44;;;4.91;73.24
69574;BME280;62840;52.366;5.980;2023-02-12T06:20:46;103785.75;;;4.94;73.10
69574;BME280;62840;52.366;5.980;2023-02-12T06:23:12;103793.69;;;4.97;73.22
69574;BME280;62840;52.366;5.980;2023-02-12T06:25:38;103791.00;;;5.00;73.08
69574;BME280;62840;52.366;5.980;2023-02-12T06:28:04;103787.44;;;5.02;73.08
69574;BME280;62840;52.366;5.980;2023-02-12T06:30:32;103782.16;;;5.04;73.03
69574;BME280;62840;52.366;5.980;2023-02-12T06:32:58;103792.69;;;5.07;73.12
69574;BME280;62840;52.366;5.980;2023-02-12T06:35:24;103785.59;;;5.09;73.16
69574;BME280;62840;52.366;5.980;2023-02-12T06:37:50;103779.41;;;5.12;73.10
69574;BME280;62840;52.366;5.980;2023-02-12T06:40:16;103781.13;;;5.14;73.23
69574;BME280;62840;52.366;5.980;2023-02-12T06:42:42;103783.75;;;5.17;73.00
69574;BME280;62840;52.366;5.980;2023-02-12T06:45:08;103780.19;;;5.20;73.21
69574;BME280;62840;52.366;5.980;2023-02-12T06:47:37;103785.47;;;5.21;73.25
69574;BME280;62840;52.366;5.980;2023-02-12T06:50:03;103797.78;;;5.22;73.24
69574;BME280;62840;52.366;5.980;2023-02-12T06:52:30;103799.53;;;5.23;73.14
69574;BME280;62840;52.366;5.980;2023-02-12T06:54:56;103792.44;;;5.25;73.38
69574;BME280;62840;52.366;5.980;2023-02-12T06:57:22;103801.25;;;5.28;73.17
69574;BME280;62840;52.366;5.980;2023-02-12T06:59:48;103797.69;;;5.30;73.40
69574;BME280;62840;52.366;5.980;2023-02-12T07:02:14;103799.44;;;5.33;73.25
69574;BME280;62840;52.366;5.980;2023-02-12T07:04:42;103796.75;;;5.36;73.03
69574;BME280;62840;52.366;5.980;2023-02-12T07:07:08;103804.63;;;5.39;73.15
69574;BME280;62840;52.366;5.980;2023-02-12T07:09:34;103804.63;;;5.42;73.10
69574;BME280;62840;52.366;5.980;2023-02-12T07:12:00;103808.13;;;5.44;72.96
69574;BME280;62840;52.366;5.980;2023-02-12T07:14:25;103805.41;;;5.47;72.91
69574;BME280;62840;52.366;5.980;2023-02-12T07:16:51;103804.47;;;5.51;72.96
69574;BME280;62840;52.366;5.980;2023-02-12T07:19:17;103821.22;;;5.53;73.18
69574;BME280;62840;52.366;5.980;2023-02-12T07:21:45;103810.59;;;5.55;73.15
69574;BME280;62840;52.366;5.980;2023-02-12T07:24:11;103809.66;;;5.57;73.06
69574;BME280;62840;52.366;5.980;2023-02-12T07:26:37;103816.72;;;5.58;73.29
69574;BME280;62840;52.366;5.980;2023-02-12T07:29:04;103821.97;;;5.61;73.17
69574;BME280;62840;52.366;5.980;2023-02-12T07:31:30;103823.75;;;5.62;73.14
69574;BME280;62840;52.366;5.980;2023-02-12T07:33:57;103821.94;;;5.64;72.92
69574;BME280;62840;52.366;5.980;2023-02-12T07:36:25;103833.34;;;5.68;72.98
69574;BME280;62840;52.366;5.980;2023-02-12T07:38:56;103836.84;;;5.72;72.94
69574;BME280;62840;52.366;5.980;2023-02-12T07:41:25;103843.00;;;5.74;73.03
69574;BME280;62840;52.366;5.980;2023-02-12T07:43:54;103836.78;;;5.78;73.04
69574;BME280;62840;52.366;5.980;2023-02-12T07:46:23;103835.00;;;5.78;72.88
69574;BME280;62840;52.366;5.980;2023-02-12T07:48:51;103837.59;;;5.80;72.98
69574;BME280;62840;52.366;5.980;2023-02-12T07:51:17;103846.41;;;5.82;73.06
69574;BME280;62840;52.366;5.980;2023-02-12T07:53:43;103844.59;;;5.84;72.89
69574;BME280;62840;52.366;5.980;2023-02-12T07:56:14;103850.75;;;5.89;72.78
69574;BME280;62840;52.366;5.980;2023-02-12T07:58:43;103851.56;;;5.91;72.94
69574;BME280;62840;52.366;5.980;2023-02-12T08:01:12;103842.72;;;5.94;72.94
69574;BME280;62840;52.366;5.980;2023-02-12T08:03:40;103852.38;;;5.96;72.93
69574;BME280;62840;52.366;5.980;2023-02-12T08:06:08;103865.59;;;5.99;72.92
69574;BME280;62840;52.366;5.980;2023-02-12T08:08:35;103857.63;;;6.01;72.80
69574;BME280;62840;52.366;5.980;2023-02-12T08:11:01;103861.09;;;6.04;73.06
69574;BME280;62840;52.366;5.980;2023-02-12T08:13:30;103869.88;;;6.06;72.76
69574;BME280;62840;52.366;5.980;2023-02-12T08:15:59;103872.50;;;6.09;72.93
69574;BME280;62840;52.366;5.980;2023-02-12T08:18:25;103873.38;;;6.12;72.83
69574;BME280;62840;52.366;5.980;2023-02-12T08:20:50;103863.59;;;6.14;72.84
69574;BME280;62840;52.366;5.980;2023-02-12T08:23:16;103879.47;;;6.17;72.94
69574;BME280;62840;52.366;5.980;2023-02-12T08:25:42;103869.72;;;6.19;73.06
69574;BME280;62840;52.366;5.980;2023-02-12T08:28:08;103874.94;;;6.23;73.07
69574;BME280;62840;52.366;5.980;2023-02-12T08:30:36;103877.53;;;6.25;73.11
69574;BME280;62840;52.366;5.980;2023-02-12T08:33:02;103881.91;;;6.29;72.93
69574;BME280;62840;52.366;5.980;2023-02-12T08:35:27;103883.63;;;6.32;73.11
69574;BME280;62840;52.366;5.980;2023-02-12T08:37:53;103891.50;;;6.36;72.96
69574;BME280;62840;52.366;5.980;2023-02-12T08:40:19;103890.63;;;6.39;72.91
69574;BME280;62840;52.366;5.980;2023-02-12T08:42:45;103895.00;;;6.41;73.12
69574;BME280;62840;52.366;5.980;2023-02-12T08:45:10;103893.13;;;6.46;72.99
69574;BME280;62840;52.366;5.980;2023-02-12T08:47:39;103895.72;;;6.49;73.13
69574;BME280;62840;52.366;5.980;2023-02-12T08:50:06;103898.34;;;6.53;72.89
69574;BME280;62840;52.366;5.980;2023-02-12T08:52:33;103895.63;;;6.56;73.06
69574;BME280;62840;52.366;5.980;2023-02-12T08:54:59;103897.34;;;6.60;73.24
69574;BME280;62840;52.366;5.980;2023-02-12T08:57:25;103894.63;;;6.63;73.19
69574;BME280;62840;52.366;5.980;2023-02-12T08:59:51;103898.97;;;6.67;73.29
69574;BME280;62840;52.366;5.980;2023-02-12T09:02:16;103899.81;;;6.69;73.16
69574;BME280;62840;52.366;5.980;2023-02-12T09:04:45;103909.47;;;6.75;73.08
69574;BME280;62840;52.366;5.980;2023-02-12T09:07:10;103910.28;;;6.78;73.25
69574;BME280;62840;52.366;5.980;2023-02-12T09:09:36;103909.31;;;6.82;73.33
69574;BME280;62840;52.366;5.980;2023-02-12T09:12:02;103918.13;;;6.86;73.25
69574;BME280;62840;52.366;5.980;2023-02-12T09:14:28;103904.78;;;6.90;73.40
69574;BME280;62840;52.366;5.980;2023-02-12T09:16:54;103910.00;;;6.93;73.39
69574;BME280;62840;52.366;5.980;2023-02-12T09:19:20;103905.47;;;6.99;73.37
69574;BME280;62840;52.366;5.980;2023-02-12T09:21:52;103918.66;;;7.05;73.41
69574;BME280;62840;52.366;5.980;2023-02-12T09:24:19;103911.47;;;7.10;73.45
69574;BME280;62840;52.366;5.980;2023-02-12T09:26:45;103916.75;;;7.13;73.38
69574;BME280;62840;52.366;5.980;2023-02-12T09:29:10;103914.88;;;7.18;73.34
69574;BME280;62840;52.366;5.980;2023-02-12T09:31:36;103906.81;;;7.23;73.38
69574;BME280;62840;52.366;5.980;2023-02-12T09:34:03;103916.41;;;7.28;73.30
69574;BME280;62840;52.366;5.980;2023-02-12T09:36:32;103909.25;;;7.33;73.55
69574;BME280;62840;52.366;5.980;2023-02-12T09:39:01;103915.38;;;7.40;73.46
69574;BME280;62840;52.366;5.980;2023-02-12T09:41:43;103916.13;;;7.47;73.30
69574;BME280;62840;52.366;5.980;2023-02-12T09:44:26;103917.78;;;7.51;73.37
69574;BME280;62840;52.366;5.980;2023-02-12T09:47:02;103912.34;;;7.57;73.60
69574;BME280;62840;52.366;5.980;2023-02-12T09:49:49;103913.13;;;7.62;73.50
69574;BME280;62840;52.366;5.980;2023-02-12T09:52:30;103908.63;;;7.67;73.50
69574;BME280;62840;52.366;5.980;2023-02-12T09:55:00;103907.59;;;7.73;73.49
69574;BME280;62840;52.366;5.980;2023-02-12T09:57:30;103911.91;;;7.79;73.43
69574;BME280;62840;52.366;5.980;2023-02-12T09:59:59;103916.22;;;7.84;73.43
69574;BME280;62840;52.366;5.980;2023-02-12T10:02:29;103908.13;;;7.89;73.21
69574;BME280;62840;52.366;5.980;2023-02-12T10:04:55;103920.38;;;7.96;73.26
69574;BME280;62840;52.366;5.980;2023-02-12T10:07:29;103913.19;;;8.01;73.31
69574;BME280;62840;52.366;5.980;2023-02-12T10:10:21;103918.28;;;8.10;73.14
69574;BME280;62840;52.366;5.980;2023-02-12T10:13:03;103917.25;;;8.16;73.16
69574;BME280;62840;52.366;5.980;2023-02-12T10:15:34;103914.44;;;8.24;73.13
69574;BME280;62840;52.366;5.980;2023-02-12T10:18:34;103910.72;;;8.31;72.98
69574;BME280;62840;52.366;5.980;2023-02-12T10:21:27;103908.78;;;8.39;73.00
69574;BME280;62840;52.366;5.980;2023-02-12T10:24:28;103903.28;;;8.45;72.81
69574;BME280;62840;52.366;5.980;2023-02-12T10:27:12;103905.81;;;8.51;72.71
69574;BME280;62840;52.366;5.980;2023-02-12T10:29:40;103901.22;;;8.56;72.55
69574;BME280;62840;52.366;5.980;2023-02-12T10:32:22;103910.88;;;8.61;72.53
69574;BME280;62840;52.366;5.980;2023-02-12T10:34:52;103904.59;;;8.65;72.44
69574;BME280;62840;52.366;5.980;2023-02-12T10:37:27;103909.78;;;8.69;72.42
69574;BME280;62840;52.366;5.980;2023-02-12T10:40:05;103908.81;;;8.73;72.37
69574;BME280;62840;52.366;5.980;2023-02-12T10:42:47;103911.34;;;8.78;72.38
69574;BME280;62840;52.366;5.980;2023-02-12T10:45:17;103909.44;;;8.83;72.39
69574;BME280;62840;52.366;5.980;2023-02-12T10:47:46;103912.84;;;8.88;72.16
69574;BME280;62840;52.366;5.980;2023-02-12T10:50:20;103908.31;;;8.92;72.10
69574;BME280;62840;52.366;5.980;2023-02-12T10:52:55;103909.13;;;8.95;72.13
69574;BME280;62840;52.366;5.980;2023-02-12T10:55:26;103912.53;;;9.00;71.89
69574;BME280;62840;52.366;5.980;2023-02-12T10:57:56;103908.88;;;9.05;71.77
69574;BME280;62840;52.366;5.980;2023-02-12T11:00:26;103907.03;;;9.07;71.88
69574;BME280;62840;52.366;5.980;2023-02-12T11:03:22;103914.06;;;9.09;71.66
69574;BME280;62840;52.366;5.980;2023-02-12T11:05:51;103906.94;;;9.10;71.61
69574;BME280;62840;52.366;5.980;2023-02-12T11:08:32;103914.91;;;9.11;71.40
69574;BME280;62840;52.366;5.980;2023-02-12T11:11:07;103905.13;;;9.12;71.48
69574;BME280;62840;52.366;5.980;2023-02-12T11:13:39;103913.94;;;9.14;71.38
69574;BME280;62840;52.366;5.980;2023-02-12T11:16:09;103912.13;;;9.16;71.24
69574;BME280;62840;52.366;5.980;2023-02-12T11:18:35;103906.78;;;9.16;71.33
69574;BME280;62840;52.366;5.980;2023-02-12T11:21:03;103903.19;;;9.17;71.34
69574;BME280;62840;52.366;5.980;2023-02-12T11:23:34;103907.66;;;9.16;71.34
69574;BME280;62840;52.366;5.980;2023-02-12T11:26:02;103900.53;;;9.17;71.08
69574;BME280;62840;52.366;5.980;2023-02-12T11:28:31;103904.06;;;9.17;71.06
69574;BME280;62840;52.366;5.980;2023-02-12T11:31:03;103899.63;;;9.18;70.97
69574;BME280;62840;52.366;5.980;2023-02-12T11:33:46;103889.84;;;9.18;70.90
69574;BME280;62840;52.366;5.980;2023-02-12T11:36:32;103894.25;;;9.19;70.88
69574;BME280;62840;52.366;5.980;2023-02-12T11:39:01;103889.75;;;9.21;70.87
69574;BME280;62840;52.366;5.980;2023-02-12T11:41:32;103885.28;;;9.22;70.98
69574;BME280;62840;52.366;5.980;2023-02-12T11:44:09;103887.16;;;9.20;70.73
69574;BME280;62840;52.366;5.980;2023-02-12T11:46:39;103887.16;;;9.20;70.77
69574;BME280;62840;52.366;5.980;2023-02-12T11:49:18;103881.84;;;9.20;70.69
69574;BME280;62840;52.366;5.980;2023-02-12T11:51:48;103888.03;;;9.20;70.56
69574;BME280;62840;52.366;5.980;2023-02-12T11:54:18;103889.75;;;9.21;70.79
69574;BME280;62840;52.366;5.980;2023-02-12T11:56:46;103886.19;;;9.23;70.78
69574;BME280;62840;52.366;5.980;2023-02-12T11:59:25;103881.72;;;9.23;70.76
69574;BME280;62840;52.366;5.980;2023-02-12T12:02:04;103883.56;;;9.21;70.76
69574;BME280;62840;52.366;5.980;2023-02-12T12:04:45;103882.63;;;9.22;70.66
69574;BME280;62840;52.366;5.980;2023-02-12T12:07:18;103880.06;;;9.19;70.73
69574;BME280;62840;52.366;5.980;2023-02-12T12:09:52;103874.84;;;9.16;70.83
69574;BME280;62840;52.366;5.980;2023-02-12T12:12:31;103868.59;;;9.17;70.72
69574;BME280;62840;52.366;5.980;2023-02-12T12:15:10;103871.25;;;9.17;70.96
69574;BME280;62840;52.366;5.980;2023-02-12T12:17:47;103873.00;;;9.18;70.94
69574;BME280;62840;52.366;5.980;2023-02-12T12:20:21;103865.91;;;9.17;70.96
69574;BME280;62840;52.366;5.980;2023-02-12T12:22:56;103876.53;;;9.18;70.92
69574;BME280;62840;52.366;5.980;2023-02-12T12:25:29;103870.34;;;9.18;70.95
69574;BME280;62840;52.366;5.980;2023-02-12T12:28:05;103863.25;;;9.17;70.97
69574;BME280;62840;52.366;5.980;2023-02-12T12:31:00;103859.69;;;9.18;71.11
69574;BME280;62840;52.366;5.980;2023-02-12T12:33:42;103859.63;;;9.19;71.09
69574;BME280;62840;52.366;5.980;2023-02-12T12:36:54;103858.66;;;9.22;70.99
69574;BME280;62840;52.366;5.980;2023-02-12T12:39:34;103856.94;;;9.21;70.82
69574;BME280;62840;52.366;5.980;2023-02-12T12:47:52;103854.13;;;9.26;70.96
69574;BME280;62840;52.366;5.980;2023-02-12T12:50:50;103862.09;;;9.27;70.82
69574;BME280;62840;52.366;5.980;2023-02-12T12:53:41;103851.44;;;9.27;70.83
69574;BME280;62840;52.366;5.980;2023-02-12T12:56:23;103863.81;;;9.28;70.78
69574;BME280;62840;52.366;5.980;2023-02-12T12:59:42;103860.28;;;9.29;70.29
69574;BME280;62840;52.366;5.980;2023-02-12T13:02:41;103851.38;;;9.30;70.50
69574;BME280;62840;52.366;5.980;2023-02-12T13:05:49;103849.66;;;9.29;70.63
69574;BME280;62840;52.366;5.980;2023-02-12T13:08:36;103849.66;;;9.29;70.60
69574;BME280;62840;52.366;5.980;2023-02-12T13:11:25;103847.84;;;9.30;70.55
69574;BME280;62840;52.366;5.980;2023-02-12T13:14:11;103839.00;;;9.29;70.59
69574;BME280;62840;52.366;5.980;2023-02-12T13:16:54;103838.09;;;9.29;70.52
69574;BME280;62840;52.366;5.980;2023-02-12T13:19:35;103830.13;;;9.27;70.43
69574;BME280;62840;52.366;5.980;2023-02-12T13:22:18;103826.66;;;9.25;70.24
69574;BME280;62840;52.366;5.980;2023-02-12T13:24:55;103826.66;;;9.25;70.25
69574;BME280;62840;52.366;5.980;2023-02-12T13:27:30;103826.72;;;9.22;70.06
69574;BME280;62840;52.366;5.980;2023-02-12T13:30:04;103826.72;;;9.22;70.13
69574;BME280;62840;52.366;5.980;2023-02-12T13:32:44;103823.16;;;9.23;70.07
69574;BME280;62840;52.366;5.980;2023-02-12T13:35:19;103816.97;;;9.23;70.20
69574;BME280;62840;52.366;5.980;2023-02-12T13:37:52;103826.69;;;9.24;70.16